createdAt,value
2018-07-11T00:01:45.029Z,9.47
2018-07-11T00:04:12.989Z,8.80
2018-07-11T00:06:40.617Z,7.87
2018-07-11T00:09:08.237Z,3.80
2018-07-11T00:11:35.828Z,6.57
2018-07-11T00:14:03.529Z,5.67
2018-07-11T00:16:31.113Z,7.73
2018-07-11T00:18:58.732Z,6.17
2018-07-11T00:21:26.406Z,9.50
2018-07-11T00:23:54.237Z,7.77
2018-07-11T00:26:22.352Z,8.23
2018-07-11T00:28:50.015Z,6.73
2018-07-11T00:31:17.657Z,5.53
2018-07-11T00:33:45.272Z,7.80
2018-07-11T00:36:14.634Z,4.87
2018-07-11T00:38:42.813Z,7.27
2018-07-11T00:41:10.497Z,9.33
2018-07-11T00:43:38.209Z,6.47
2018-07-11T00:46:05.910Z,8.97
2018-07-11T00:48:34.193Z,5.77
2018-07-11T00:51:02.373Z,7.63
2018-07-11T00:53:31.189Z,8.67
2018-07-11T00:55:59.442Z,8.67
2018-07-11T00:58:30.088Z,11.10
2018-07-11T01:01:16.175Z,8.50
2018-07-11T01:03:53.022Z,6.67
2018-07-11T01:06:21.626Z,7.03
2018-07-11T01:09:04.110Z,8.03
2018-07-11T01:11:32.726Z,5.50
2018-07-11T01:14:00.484Z,7.87
2018-07-11T01:16:28.858Z,5.97
2018-07-11T01:19:05.583Z,7.73
2018-07-11T01:21:33.737Z,7.87
2018-07-11T01:24:01.371Z,8.30
2018-07-11T01:26:34.041Z,5.30
2018-07-11T01:29:01.989Z,7.73
2018-07-11T01:31:29.657Z,7.67
2018-07-11T01:33:57.714Z,8.47
2018-07-11T01:36:25.873Z,8.73
2018-07-11T01:38:53.866Z,8.40
2018-07-11T01:41:21.566Z,5.97
2018-07-11T01:43:49.268Z,10.80
2018-07-11T01:46:16.954Z,6.13
2018-07-11T01:48:45.121Z,9.30
2018-07-11T01:51:12.805Z,10.63
2018-07-11T01:53:40.501Z,6.97
2018-07-11T01:56:08.346Z,11.07
2018-07-11T01:58:36.345Z,8.93
2018-07-11T02:01:04.697Z,10.83
2018-07-11T02:03:32.765Z,8.47
2018-07-11T02:06:00.545Z,10.60
2018-07-11T02:08:28.821Z,9.13
2018-07-11T02:10:57.094Z,7.27
2018-07-11T02:13:25.152Z,7.47
2018-07-11T02:15:53.041Z,10.37
2018-07-11T02:18:25.365Z,6.37
2018-07-11T02:20:53.617Z,11.20
2018-07-11T02:23:21.465Z,8.00
2018-07-11T02:25:49.270Z,11.40
2018-07-11T02:28:16.953Z,9.50
2018-07-11T02:30:44.713Z,9.50
2018-07-11T02:33:12.377Z,10.17
2018-07-11T02:35:40.365Z,8.87
2018-07-11T02:38:08.027Z,8.40
2018-07-11T02:40:35.685Z,9.13
2018-07-11T02:43:03.326Z,11.90
2018-07-11T02:45:31.062Z,11.97
2018-07-11T02:47:58.777Z,9.63
2018-07-11T02:50:26.389Z,10.13
2018-07-11T02:52:54.166Z,10.40
2018-07-11T02:55:21.829Z,9.00
2018-07-11T02:57:49.509Z,8.53
2018-07-11T03:00:17.421Z,7.80
2018-07-11T03:02:45.590Z,10.13
2018-07-11T03:05:13.216Z,10.03
2018-07-11T03:07:40.980Z,9.10
2018-07-11T03:10:08.621Z,10.00
2018-07-11T03:12:36.229Z,10.70
2018-07-11T03:15:03.926Z,8.37
2018-07-11T03:17:32.241Z,8.57
2018-07-11T03:19:59.826Z,9.90
2018-07-11T03:22:27.453Z,8.57
2018-07-11T03:24:55.176Z,12.87
2018-07-11T03:27:22.863Z,7.70
2018-07-11T03:29:50.472Z,12.10
2018-07-11T03:32:18.750Z,8.03
2018-07-11T03:34:46.921Z,12.97
2018-07-11T03:37:15.281Z,8.97
2018-07-11T03:39:43.409Z,8.50
2018-07-11T03:42:11.069Z,11.43
2018-07-11T03:44:38.976Z,10.70
2018-07-11T03:47:06.644Z,11.30
2018-07-11T03:49:34.334Z,11.33
2018-07-11T03:52:02.990Z,13.13
2018-07-11T03:54:30.577Z,10.93
2018-07-11T03:56:58.067Z,14.13
2018-07-11T03:59:25.690Z,10.77
2018-07-11T04:01:53.257Z,9.93
2018-07-11T04:04:21.021Z,10.00
2018-07-11T04:06:48.608Z,10.33
2018-07-11T04:09:16.203Z,13.20
2018-07-11T04:11:43.786Z,10.93
2018-07-11T04:14:11.885Z,12.07
2018-07-11T04:16:39.739Z,9.23
2018-07-11T04:19:07.368Z,14.40
2018-07-11T04:21:35.137Z,9.03
2018-07-11T04:24:02.969Z,11.50
2018-07-11T04:26:30.553Z,11.13
2018-07-11T04:28:58.190Z,12.00
2018-07-11T04:31:25.828Z,13.43
2018-07-11T04:33:54.969Z,13.90
2018-07-11T04:36:22.668Z,11.83
2018-07-11T04:38:50.426Z,12.27
2018-07-11T04:41:18.020Z,12.53
2018-07-11T04:43:45.709Z,16.50
2018-07-11T04:46:13.413Z,10.13
2018-07-11T04:48:41.339Z,11.37
2018-07-11T04:51:08.898Z,12.57
2018-07-11T04:53:36.565Z,12.70
2018-07-11T04:56:04.777Z,12.30
2018-07-11T04:58:32.841Z,16.80
2018-07-11T05:01:00.655Z,16.77
2018-07-11T05:03:28.538Z,14.47
2018-07-11T05:05:56.242Z,14.30
2018-07-11T05:08:24.405Z,15.83
2018-07-11T05:10:52.117Z,16.03
2018-07-11T05:13:19.861Z,18.00
2018-07-11T05:15:47.946Z,17.13
2018-07-11T05:18:15.658Z,14.07
2018-07-11T05:20:44.017Z,15.70
2018-07-11T05:23:15.748Z,16.37
2018-07-11T05:25:43.551Z,18.43
2018-07-11T05:28:11.097Z,14.07
2018-07-11T05:30:38.675Z,19.87
2018-07-11T05:33:06.282Z,19.70
2018-07-11T05:35:33.881Z,18.37
2018-07-11T05:38:02.770Z,18.77
2018-07-11T05:40:30.360Z,12.17
2018-07-11T05:42:57.923Z,26.50
2018-07-11T05:45:25.619Z,24.50
2018-07-11T05:47:53.422Z,31.03
2018-07-11T05:50:20.982Z,25.93
2018-07-11T05:52:48.626Z,16.20
2018-07-11T05:55:16.270Z,13.77
2018-07-11T05:57:43.906Z,12.30
2018-07-11T06:00:11.671Z,15.00
2018-07-11T06:02:39.305Z,13.73
2018-07-11T06:05:06.865Z,10.27
2018-07-11T06:07:35.308Z,12.23
2018-07-11T06:10:02.942Z,14.63
2018-07-11T06:12:30.507Z,15.63
2018-07-11T06:14:58.098Z,20.00
2018-07-11T06:17:25.714Z,40.87
2018-07-11T06:19:53.445Z,13.60
2018-07-11T06:22:21.027Z,15.03
2018-07-11T06:24:48.641Z,14.23
2018-07-11T06:27:16.257Z,14.83
2018-07-11T06:29:43.852Z,18.03
2018-07-11T06:32:11.395Z,18.87
2018-07-11T06:34:38.981Z,20.10
2018-07-11T06:37:06.790Z,19.47
2018-07-11T06:39:34.394Z,17.60
2018-07-11T06:42:02.002Z,19.90
2018-07-11T06:44:29.615Z,16.83
2018-07-11T06:46:57.258Z,19.73
2018-07-11T06:49:25.309Z,20.20
2018-07-11T06:51:52.907Z,24.33
2018-07-11T06:54:20.487Z,23.70
2018-07-11T06:56:48.028Z,50.60
2018-07-11T06:59:15.610Z,31.40
2018-07-11T07:01:43.334Z,22.37
2018-07-11T07:04:11.165Z,26.00
2018-07-11T07:06:38.817Z,39.03
2018-07-11T07:09:06.785Z,30.30
2018-07-11T07:11:34.465Z,24.37
2018-07-11T07:14:02.140Z,25.87
2018-07-11T07:16:29.990Z,26.47
2018-07-11T07:18:58.031Z,23.23
2018-07-11T07:21:25.601Z,21.87
2018-07-11T07:23:53.256Z,22.63
2018-07-11T07:26:21.280Z,19.67
2018-07-11T07:28:48.889Z,18.37
2018-07-11T07:31:16.465Z,18.50
2018-07-11T07:33:44.005Z,19.63
2018-07-11T07:36:11.677Z,19.83
2018-07-11T07:38:41.814Z,22.40
2018-07-11T07:41:09.852Z,21.07
2018-07-11T07:43:37.820Z,20.67
2018-07-11T07:46:05.501Z,21.07
2018-07-11T07:48:33.090Z,23.13
2018-07-11T07:51:00.733Z,19.63
2018-07-11T07:53:28.953Z,19.57
2018-07-11T07:55:59.921Z,19.43
2018-07-11T07:58:27.757Z,18.70
2018-07-11T08:00:55.378Z,20.33
2018-07-11T08:03:23.172Z,21.90
2018-07-11T08:05:50.761Z,18.93
2018-07-11T08:08:18.765Z,18.67
2018-07-11T08:10:46.398Z,20.93
2018-07-11T08:13:13.985Z,19.87
2018-07-11T08:15:42.165Z,20.30
2018-07-11T08:18:09.876Z,21.50
2018-07-11T08:20:37.466Z,18.83
2018-07-11T08:23:17.798Z,19.70
2018-07-11T08:25:58.961Z,24.57
2018-07-11T08:28:47.557Z,18.60
2018-07-11T08:31:27.334Z,18.63
2018-07-11T08:34:09.594Z,22.93
2018-07-11T08:36:56.446Z,60.70
2018-07-11T08:39:35.175Z,19.87
2018-07-11T08:44:21.082Z,17.20
2018-07-11T08:47:29.538Z,19.67
2018-07-11T08:50:24.113Z,18.43
2018-07-11T08:53:04.938Z,19.43
2018-07-11T08:56:15.566Z,17.37
2018-07-11T09:00:00.402Z,14.80
2018-07-11T09:02:39.367Z,16.07
2018-07-11T09:06:29.911Z,15.23
2018-07-11T09:09:13.173Z,13.07
2018-07-11T09:12:00.790Z,14.57
2018-07-11T09:14:42.234Z,18.43
2018-07-11T09:17:21.266Z,15.47
2018-07-11T09:20:02.236Z,12.80
2018-07-11T09:22:40.966Z,14.10
2018-07-11T09:25:08.532Z,12.37
2018-07-11T09:27:36.158Z,11.00
2018-07-11T09:30:03.822Z,14.63
2018-07-11T09:32:31.534Z,15.67
2018-07-11T09:34:59.159Z,14.70
2018-07-11T09:37:26.858Z,13.80
2018-07-11T09:39:54.477Z,15.83
2018-07-11T09:42:22.112Z,13.97
2018-07-11T09:44:49.941Z,11.13
2018-07-11T09:47:23.258Z,14.50
2018-07-11T09:49:50.921Z,11.07
2018-07-11T09:52:18.730Z,8.77
2018-07-11T09:54:46.817Z,8.57
2018-07-11T09:57:15.418Z,11.67
2018-07-11T09:59:43.626Z,9.90
2018-07-11T10:02:12.149Z,11.43
2018-07-11T10:04:39.784Z,9.10
2018-07-11T10:07:08.067Z,12.20
2018-07-11T10:09:36.449Z,8.33
2018-07-11T10:12:04.261Z,6.60
2018-07-11T10:14:33.449Z,8.87
2018-07-11T10:17:01.105Z,9.83
2018-07-11T10:19:28.723Z,8.10
2018-07-11T10:21:56.515Z,6.97
2018-07-11T10:24:24.090Z,10.40
2018-07-11T10:26:51.873Z,5.60
2018-07-11T10:29:19.881Z,7.73
2018-07-11T10:31:47.549Z,10.53
2018-07-11T10:34:15.116Z,8.10
2018-07-11T10:36:42.745Z,9.63
2018-07-11T10:39:10.459Z,13.83
2018-07-11T10:41:37.965Z,9.90
2018-07-11T10:44:05.646Z,7.93
2018-07-11T10:46:33.448Z,10.07
2018-07-11T10:49:01.193Z,6.73
2018-07-11T10:51:28.869Z,5.83
2018-07-11T10:53:56.482Z,6.63
2018-07-11T10:56:23.992Z,7.03
2018-07-11T10:58:51.825Z,6.70
2018-07-11T11:01:19.566Z,6.40
2018-07-11T11:03:47.277Z,10.23
2018-07-11T11:06:14.879Z,6.53
2018-07-11T11:08:42.446Z,5.90
2018-07-11T11:11:10.011Z,7.37
2018-07-11T11:13:38.305Z,8.03
2018-07-11T11:16:05.915Z,10.77
2018-07-11T11:18:33.473Z,6.63
2018-07-11T11:21:01.250Z,6.10
2018-07-11T11:23:28.841Z,4.53
2018-07-11T11:25:57.295Z,4.53
2018-07-11T11:28:24.909Z,3.87
2018-07-11T11:30:52.523Z,6.37
2018-07-11T11:35:56.252Z,5.27
2018-07-11T11:38:23.881Z,4.73
2018-07-11T11:40:51.556Z,4.70
2018-07-11T11:43:19.169Z,3.07
2018-07-11T11:45:48.094Z,7.50
2018-07-11T11:48:15.682Z,7.43
2018-07-11T11:50:43.271Z,7.27
2018-07-11T11:53:10.882Z,6.53
2018-07-11T11:55:38.521Z,4.53
2018-07-11T11:58:06.213Z,5.23
2018-07-11T12:00:34.273Z,6.27
2018-07-11T12:03:01.870Z,9.30
2018-07-11T12:05:29.689Z,5.50
2018-07-11T12:07:58.065Z,6.33
2018-07-11T12:10:25.764Z,4.20
2018-07-11T12:12:53.461Z,8.60
2018-07-11T12:15:21.046Z,7.40
2018-07-11T12:17:48.676Z,8.60
2018-07-11T12:20:16.253Z,8.67
2018-07-11T12:22:44.141Z,3.70
2018-07-11T12:25:11.799Z,4.17
2018-07-11T12:27:40.181Z,4.93
2018-07-11T12:30:07.879Z,4.77
2018-07-11T12:32:35.532Z,6.00
2018-07-11T12:35:03.157Z,4.57
2018-07-11T12:37:30.873Z,2.40
2018-07-11T12:39:58.630Z,5.77
2018-07-11T12:42:26.381Z,7.33
2018-07-11T12:44:54.001Z,5.07
2018-07-11T12:47:27.418Z,2.50
2018-07-11T12:49:55.385Z,6.20
2018-07-11T12:52:23.045Z,3.70
2018-07-11T12:54:50.709Z,1.70
2018-07-11T12:57:20.812Z,4.30
2018-07-11T12:59:48.536Z,4.73
2018-07-11T13:02:16.194Z,4.60
2018-07-11T13:04:44.238Z,5.87
2018-07-11T13:07:12.030Z,4.43
2018-07-11T13:09:39.629Z,2.60
2018-07-11T13:12:07.332Z,3.33
2018-07-11T13:14:35.099Z,6.57
2018-07-11T13:17:02.730Z,5.23
2018-07-11T13:19:30.395Z,6.67
2018-07-11T13:21:58.869Z,4.50
2018-07-11T13:24:26.661Z,3.30
2018-07-11T13:26:54.241Z,3.90
2018-07-11T13:29:22.370Z,6.93
2018-07-11T13:31:49.961Z,2.97
2018-07-11T13:34:17.690Z,2.97
2018-07-11T13:36:45.297Z,4.50
2018-07-11T13:39:19.136Z,6.70
2018-07-11T13:41:47.489Z,6.47
2018-07-11T13:44:15.118Z,5.30
2018-07-11T13:46:42.719Z,2.90
2018-07-11T13:49:11.814Z,5.80
2018-07-11T13:51:39.774Z,3.77
2018-07-11T13:54:07.612Z,3.60
2018-07-11T13:56:35.701Z,6.63
2018-07-11T13:59:05.248Z,3.83
2018-07-11T14:01:33.357Z,4.20
2018-07-11T14:04:02.271Z,5.83
2018-07-11T14:06:30.023Z,6.07
2018-07-11T14:08:58.001Z,4.73
2018-07-11T14:11:25.814Z,5.53
2018-07-11T14:13:53.513Z,4.93
2018-07-11T14:16:21.621Z,5.97
2018-07-11T14:18:49.319Z,7.73
2018-07-11T14:21:16.937Z,5.33
2018-07-11T14:23:44.556Z,4.30
2018-07-11T14:26:14.018Z,6.60
2018-07-11T14:28:45.309Z,3.30
2018-07-11T14:31:13.173Z,4.77
2018-07-11T14:33:46.073Z,3.60
2018-07-11T14:36:13.706Z,3.37
2018-07-11T14:38:41.299Z,3.10
2018-07-11T14:41:08.929Z,4.20
2018-07-11T14:43:36.543Z,2.33
2018-07-11T14:46:04.252Z,4.40
2018-07-11T14:48:31.848Z,6.43
2018-07-11T14:50:59.714Z,5.10
2018-07-11T14:53:27.314Z,5.63
2018-07-11T14:55:54.976Z,8.70
2018-07-11T14:58:22.565Z,8.23
2018-07-11T15:00:50.257Z,7.30
2018-07-11T15:03:18.001Z,8.33
2018-07-11T15:05:45.676Z,12.17
2018-07-11T15:08:13.476Z,8.07
2018-07-11T15:10:41.080Z,5.07
2018-07-11T15:13:08.720Z,2.87
2018-07-11T15:15:36.420Z,5.57
2018-07-11T15:18:06.298Z,8.80
2018-07-11T15:20:34.445Z,4.50
2018-07-11T15:23:02.033Z,9.03
2018-07-11T15:25:29.661Z,6.83
2018-07-11T15:27:57.318Z,6.83
2018-07-11T15:30:24.947Z,5.80
2018-07-11T15:32:52.586Z,6.80
2018-07-11T15:35:20.365Z,7.03
2018-07-11T15:37:48.037Z,6.17
2018-07-11T15:40:15.769Z,4.80
2018-07-11T15:42:44.305Z,11.23
2018-07-11T15:45:12.490Z,11.83
2018-07-11T15:47:42.721Z,8.60
2018-07-11T15:50:10.274Z,12.10
2018-07-11T15:52:38.098Z,9.70
2018-07-11T15:55:05.677Z,7.57
2018-07-11T15:57:49.006Z,10.07
2018-07-11T16:00:20.409Z,11.30
2018-07-11T16:02:49.601Z,11.13
2018-07-11T16:05:19.505Z,10.07
2018-07-11T16:07:49.128Z,10.80
2018-07-11T16:10:19.511Z,9.13
2018-07-11T16:12:47.158Z,12.50
2018-07-11T16:15:14.886Z,9.60
2018-07-11T16:17:42.453Z,11.23
2018-07-11T16:20:10.014Z,14.77
2018-07-11T16:22:37.629Z,9.50
2018-07-11T16:25:05.729Z,10.77
2018-07-11T16:27:33.419Z,10.87
2018-07-11T16:30:01.065Z,10.57
2018-07-11T16:32:28.705Z,10.37
2018-07-11T16:34:56.321Z,13.73
2018-07-11T16:37:24.091Z,12.43
2018-07-11T16:39:51.798Z,10.40
2018-07-11T16:42:19.514Z,12.13
2018-07-11T16:44:47.677Z,11.27
2018-07-11T16:47:15.964Z,37.93
2018-07-11T16:49:43.577Z,16.40
2018-07-11T16:52:11.393Z,13.83
2018-07-11T16:54:39.121Z,9.90
2018-07-11T16:57:07.945Z,10.93
2018-07-11T16:59:48.498Z,10.60
2018-07-11T17:02:22.997Z,9.83
2018-07-11T17:04:52.784Z,9.43
2018-07-11T17:07:21.707Z,9.13
2018-07-11T17:09:50.673Z,10.23
2018-07-11T17:12:19.589Z,10.13
2018-07-11T17:14:47.805Z,12.73
2018-07-11T17:17:17.613Z,6.73
2018-07-11T17:20:15.729Z,8.40
2018-07-11T17:22:48.690Z,10.40
2018-07-11T17:25:19.352Z,7.97
2018-07-11T17:27:47.561Z,7.17
2018-07-11T17:30:15.685Z,7.57
2018-07-11T17:32:43.909Z,8.47
2018-07-11T17:35:11.533Z,6.83
2018-07-11T17:37:39.303Z,7.10
2018-07-11T17:40:09.146Z,12.63
2018-07-11T17:42:36.777Z,11.67
2018-07-11T17:45:17.429Z,11.90
2018-07-11T17:49:56.967Z,12.17
2018-07-11T17:52:25.359Z,27.37
2018-07-11T17:55:10.605Z,8.60
2018-07-11T17:57:43.493Z,10.23
2018-07-11T18:00:11.285Z,9.87
2018-07-11T18:04:49.034Z,9.70
2018-07-11T18:07:27.348Z,10.20
2018-07-11T18:10:00.708Z,10.40
2018-07-11T18:13:41.674Z,10.07
2018-07-11T18:16:45.785Z,10.97
2018-07-11T18:20:23.611Z,9.47
2018-07-11T18:22:54.030Z,8.93
2018-07-11T18:25:36.985Z,9.70
2018-07-11T18:28:15.589Z,9.37
2018-07-11T18:32:55.954Z,12.23
2018-07-11T18:35:38.582Z,19.30
2018-07-11T18:38:16.706Z,11.67
2018-07-11T18:41:00.683Z,13.67
2018-07-11T18:43:39.501Z,11.90
2018-07-11T18:47:19.957Z,10.60
2018-07-11T18:51:58.739Z,11.37
2018-07-11T18:55:40.617Z,10.30
2018-07-11T18:58:24.953Z,13.50
2018-07-11T19:01:35.715Z,11.43
2018-07-11T19:04:23.806Z,9.33
2018-07-11T19:07:02.593Z,11.37
2018-07-11T19:09:54.682Z,8.40
2018-07-11T19:12:30.173Z,9.67
2018-07-11T19:15:11.940Z,9.73
2018-07-11T19:19:52.805Z,9.00
2018-07-11T19:22:44.309Z,10.00
2018-07-11T19:25:19.982Z,9.60
2018-07-11T19:29:02.864Z,12.67
2018-07-11T19:31:43.184Z,12.53
2018-07-11T19:34:20.620Z,11.70
2018-07-11T19:36:56.697Z,12.30
2018-07-11T19:39:35.449Z,12.07
2018-07-11T19:42:43.402Z,13.70
2018-07-11T19:45:34.425Z,9.93
2018-07-11T19:48:09.784Z,12.30
2018-07-11T19:50:48.704Z,26.20
2018-07-11T19:53:29.309Z,31.60
2018-07-11T19:56:24.117Z,16.33
2018-07-11T19:58:51.673Z,15.67
2018-07-11T20:01:19.314Z,15.23
2018-07-11T20:03:46.998Z,15.40
2018-07-11T20:06:14.613Z,16.93
2018-07-11T20:08:42.456Z,17.40
2018-07-11T20:11:10.026Z,16.13
2018-07-11T20:13:37.672Z,19.87
2018-07-11T20:16:05.357Z,21.50
2018-07-11T20:18:32.921Z,16.93
2018-07-11T20:21:00.549Z,36.40
2018-07-11T20:23:28.782Z,18.43
2018-07-11T20:25:56.486Z,13.93
2018-07-11T20:28:24.319Z,15.10
2018-07-11T20:30:51.942Z,17.03
2018-07-11T20:33:19.566Z,14.90
2018-07-11T20:35:47.169Z,17.23
2018-07-11T20:38:14.801Z,13.93
2018-07-11T20:40:42.465Z,16.47
2018-07-11T20:43:10.054Z,14.77
2018-07-11T20:45:37.682Z,17.57
2018-07-11T20:48:05.318Z,15.30
2018-07-11T20:50:32.881Z,17.53
2018-07-11T20:53:00.564Z,16.13
2018-07-11T20:55:28.314Z,17.53
2018-07-11T20:58:07.463Z,13.90
2018-07-11T21:00:46.521Z,13.50
2018-07-11T21:03:44.897Z,15.10
2018-07-11T21:06:27.410Z,15.13
2018-07-11T21:09:06.503Z,16.10
2018-07-11T21:12:15.165Z,16.03
2018-07-11T21:16:54.832Z,15.43
2018-07-11T21:19:22.423Z,12.53
2018-07-11T21:21:49.982Z,12.77
2018-07-11T21:24:17.561Z,13.33
2018-07-11T21:26:45.129Z,13.93
2018-07-11T21:29:12.742Z,13.83
2018-07-11T21:31:40.281Z,12.47
2018-07-11T21:34:07.858Z,12.10
2018-07-11T21:36:35.622Z,10.40
2018-07-11T21:39:12.000Z,14.77
2018-07-11T21:41:39.747Z,10.57
2018-07-11T21:44:07.289Z,13.00
2018-07-11T21:46:35.399Z,11.80
2018-07-11T21:49:02.997Z,11.87
2018-07-11T21:51:30.645Z,12.83
2018-07-11T21:53:58.251Z,11.23
2018-07-11T21:56:26.245Z,11.77
2018-07-11T21:58:53.927Z,14.47
2018-07-11T22:01:21.637Z,13.87
2018-07-11T22:03:49.207Z,14.17
2018-07-11T22:06:16.848Z,12.33
2018-07-11T22:08:44.443Z,16.57
2018-07-11T22:11:12.196Z,11.43
2018-07-11T22:13:40.470Z,12.63
2018-07-11T22:16:08.166Z,13.27
2018-07-11T22:18:43.177Z,15.10
2018-07-11T22:21:10.643Z,14.27
2018-07-11T22:23:37.164Z,12.83
2018-07-11T22:26:03.716Z,13.70
2018-07-11T22:28:30.757Z,16.83
2018-07-11T22:30:57.299Z,17.63
2018-07-11T22:33:23.811Z,17.37
2018-07-11T22:35:50.533Z,15.50
2018-07-11T22:38:17.085Z,15.07
2018-07-11T22:40:44.143Z,16.87
2018-07-11T22:43:10.684Z,13.27
2018-07-11T22:45:37.197Z,15.57
2018-07-11T22:48:03.737Z,19.53
2018-07-11T22:50:30.520Z,16.23
2018-07-11T22:52:57.172Z,14.83
2018-07-11T22:55:23.788Z,16.70
2018-07-11T22:57:54.146Z,15.73
2018-07-11T23:00:20.647Z,15.27
2018-07-11T23:02:47.161Z,13.17
2018-07-11T23:05:13.663Z,14.33
2018-07-11T23:07:40.185Z,12.50
2018-07-11T23:10:06.733Z,17.83
2018-07-11T23:12:33.978Z,16.90
2018-07-11T23:15:00.498Z,17.23
2018-07-11T23:17:27.235Z,14.23
2018-07-11T23:19:53.747Z,16.43
2018-07-11T23:22:20.285Z,13.07
2018-07-11T23:24:46.824Z,16.43
2018-07-11T23:27:13.448Z,16.77
2018-07-11T23:29:39.929Z,13.77
2018-07-11T23:32:06.432Z,13.00
2018-07-11T23:34:32.965Z,15.63
2018-07-11T23:36:59.465Z,16.27
2018-07-11T23:39:25.990Z,13.03
2018-07-11T23:41:52.954Z,15.10
2018-07-11T23:44:19.538Z,16.60
2018-07-11T23:46:46.062Z,14.93
2018-07-11T23:49:12.596Z,18.60
2018-07-11T23:51:39.103Z,14.00
2018-07-11T23:54:05.622Z,13.73
2018-07-11T23:56:32.197Z,14.63
2018-07-11T23:58:58.720Z,16.83
